Aeroporto :
LOGIN :

Iscrizione | Disclaimer

   EN    FR    IT 

 










Sommario :    VFR   VFR Marginale   IFR   IFR Intensivo   IFR Molto Intensivo
Visibilità : 
Base nubi : 
>= 8 km
>= 3000ft
5 / 8 km
1000 / 3000 ft
1500m / 5 km
500 / 1000 ft
800 / 1500m
200 / 500 ft
< 800m
< 200 ft
Simboli :   Temporali  Nebbia  Neve Forte  Precipitazioni Forti  Vento > 20 kt
SIGMETs :   Varie  Temporali  Ghiacco  Turbolenza  Onda orograficha  Ceneri Vulcaniche






- Altitudine del aeroporto : 10 ft
- Codice IATA : AAL


EKYT - Aalborg

ULTIMO METAR :
  • 171420Z 12003KT 5000 -SHRA SCT008 BKN012 08/08 Q1014

METARs OBSOLETI :
  • 171412Z 11003KT 3000 -SHRA SCT006 BKN010 08/08 Q1014
  • 171402Z AUTO 09002KT 7000 SCT006/// BKN008/// OVC010/// 08/08 Q1014
  • 171350Z AUTO 10003KT 8000 BKN006/// OVC009/// 07/07 Q1014
  • 171320Z AUTO 08003KT 7000 FEW002/// BKN007/// 07/07 Q1014
  • 171250Z AUTO 08003KT 3600 -RA BR FEW002/// OVC007/// 07/07 Q1014
  • 171226Z AUTO 06002KT 7000 FEW002/// OVC008/// 07/07 Q1013
  • 171150Z 14001KT 9000 -SHRA FEW002 SCT007 BKN009 07/07 Q1013

TAF TAF EKYT
Valido dal 17 a 15 ore il 18 a 15 ore UTC


171408Z 1715/1815 09005KT 9999 SCT007 BKN020
TEMPO 1715/1718 4000 BR BKN007
TEMPO 1718/1803 2500 BR BKN002
TEMPO 1803/1809 4000 -RADZ BR BKN007



MetMap, La meteo Aeronautica in un colpo d'occhio ! - Copyright ORBIFLY Dicembre 2007 - Disclaimer

ORBIFLY MET'MAP TEAM :

Programmazione e sviluppo : Alexandra Zaïnal
Concezione e sviluppo : Baudouin d'Aumeries
Co-Programmazione e sviluppo : Marc-Olivier Méhu
Supporto tecnico e logistico : Manuel Goepfert
Aiuto per la traduzione : Arnaldo La Scala

Contatto : metmap@orbifly.com




FONTI E CREDITI :

   NOAA